createdAt,value
2018-02-02T00:00:22.065Z,97.16
2018-02-02T00:01:22.047Z,96.97
2018-02-02T00:02:22.045Z,97.25
2018-02-02T00:03:21.778Z,97.78
2018-02-02T00:04:22.018Z,99.01
2018-02-02T00:05:21.761Z,98.96
2018-02-02T00:06:21.748Z,99.05
2018-02-02T00:07:21.991Z,98.44
2018-02-02T00:08:21.732Z,98.39
2018-02-02T00:09:21.975Z,98.77
2018-02-02T00:10:21.711Z,99.99
2018-02-02T00:11:21.701Z,99.99
2018-02-02T00:12:21.946Z,99.99
2018-02-02T00:13:21.749Z,99.99
2018-02-02T00:14:21.669Z,99.99
2018-02-02T00:15:21.915Z,99.99
2018-02-02T00:16:21.906Z,99.99
2018-02-02T00:17:21.893Z,99.99
2018-02-02T00:18:21.887Z,99.99
2018-02-02T00:19:21.631Z,99.99
2018-02-02T00:20:21.856Z,99.99
2018-02-02T00:21:21.858Z,99.99
2018-02-02T00:22:21.848Z,99.99
2018-02-02T00:23:21.583Z,99.99
2018-02-02T00:24:21.831Z,99.99
2018-02-02T00:25:21.814Z,99.99
2018-02-02T00:26:21.566Z,99.99
2018-02-02T00:27:21.542Z,99.99
2018-02-02T00:28:21.537Z,99.99
2018-02-02T00:29:21.773Z,99.99
2018-02-02T00:30:21.518Z,99.99
2018-02-02T00:31:21.776Z,99.99
2018-02-02T00:32:21.755Z,99.99
2018-02-02T00:33:21.736Z,99.99
2018-02-02T00:34:21.482Z,99.99
2018-02-02T00:35:21.717Z,99.99
2018-02-02T00:36:21.713Z,99.99
2018-02-02T00:37:21.712Z,99.99
2018-02-02T00:38:21.683Z,99.99
2018-02-02T00:39:21.424Z,99.99
2018-02-02T00:40:21.417Z,99.99
2018-02-02T00:41:21.658Z,99.99
2018-02-02T00:42:21.665Z,99.99
2018-02-02T00:43:21.384Z,99.99
2018-02-02T00:44:21.626Z,99.99
2018-02-02T00:45:21.642Z,99.99
2018-02-02T00:46:21.603Z,99.99
2018-02-02T00:47:21.345Z,99.99
2018-02-02T00:48:21.585Z,99.99
2018-02-02T00:49:21.575Z,99.99
2018-02-02T00:50:21.318Z,99.99
2018-02-02T00:51:21.303Z,99.99
2018-02-02T00:52:21.563Z,99.99
2018-02-02T00:53:21.537Z,99.99
2018-02-02T00:54:21.274Z,99.99
2018-02-02T00:55:21.264Z,99.99
2018-02-02T00:56:21.515Z,99.99
2018-02-02T00:57:21.499Z,99.99
2018-02-02T00:58:21.240Z,99.99
2018-02-02T00:59:21.529Z,99.99
2018-02-02T01:00:21.208Z,99.99
2018-02-02T01:01:21.451Z,99.99
2018-02-02T01:02:21.191Z,99.99
2018-02-02T01:03:21.430Z,99.99
2018-02-02T01:04:21.174Z,99.99
2018-02-02T01:05:21.160Z,99.99
2018-02-02T01:06:21.149Z,99.99
2018-02-02T01:07:21.149Z,99.99
2018-02-02T01:08:21.381Z,99.99
2018-02-02T01:09:21.370Z,99.99
2018-02-02T01:10:21.417Z,99.99
2018-02-02T01:11:21.350Z,99.99
2018-02-02T01:12:21.338Z,99.99
2018-02-02T01:13:21.077Z,99.99
2018-02-02T01:14:21.088Z,99.99
2018-02-02T01:15:21.320Z,99.99
2018-02-02T01:16:21.316Z,99.99
2018-02-02T01:17:21.035Z,99.99
2018-02-02T01:18:21.275Z,99.99
2018-02-02T01:19:21.273Z,99.99
2018-02-02T01:20:21.265Z,99.99
2018-02-02T01:21:20.996Z,99.99
2018-02-02T01:22:21.249Z,99.99
2018-02-02T01:23:21.224Z,99.99
2018-02-02T01:24:21.212Z,99.99
2018-02-02T01:25:21.205Z,99.99
2018-02-02T01:26:20.947Z,99.99
2018-02-02T01:27:21.199Z,99.99
2018-02-02T01:28:20.922Z,99.99
2018-02-02T01:29:21.161Z,99.99
2018-02-02T01:30:21.159Z,99.99
2018-02-02T01:31:21.138Z,99.99
2018-02-02T01:32:21.134Z,99.99
2018-02-02T01:33:21.131Z,99.99
2018-02-02T01:34:21.104Z,99.99
2018-02-02T01:35:21.101Z,99.99
2018-02-02T01:36:20.843Z,99.99
2018-02-02T01:37:20.835Z,99.99
2018-02-02T01:38:20.812Z,99.99
2018-02-02T01:39:20.855Z,99.99
2018-02-02T01:40:20.856Z,99.99
2018-02-02T01:41:20.857Z,99.99
2018-02-02T01:42:20.772Z,99.99
2018-02-02T01:43:21.012Z,99.99
2018-02-02T01:44:21.008Z,99.99
2018-02-02T01:45:21.053Z,99.99
2018-02-02T01:46:20.988Z,99.99
2018-02-02T01:47:20.972Z,99.99
2018-02-02T01:48:20.961Z,99.99
2018-02-02T01:49:20.700Z,99.99
2018-02-02T01:50:20.689Z,99.99
2018-02-02T01:51:20.705Z,99.99
2018-02-02T01:52:20.921Z,99.99
2018-02-02T01:53:20.912Z,99.99
2018-02-02T01:54:20.898Z,99.99
2018-02-02T01:55:20.886Z,99.99
2018-02-02T01:56:20.629Z,99.99
2018-02-02T01:57:20.866Z,99.99
2018-02-02T01:58:20.866Z,99.99
2018-02-02T01:59:20.853Z,99.99
2018-02-02T02:00:20.838Z,99.99
2018-02-02T02:01:20.574Z,99.99
2018-02-02T02:02:20.814Z,99.99
2018-02-02T02:03:20.804Z,99.99
2018-02-02T02:04:20.550Z,99.99
2018-02-02T02:05:20.783Z,99.99
2018-02-02T02:06:20.771Z,99.99
2018-02-02T02:07:20.536Z,99.76
2018-02-02T02:08:20.750Z,99.29
2018-02-02T02:09:20.741Z,99.01
2018-02-02T02:10:20.755Z,98.53
2018-02-02T02:11:20.760Z,97.58
2018-02-02T02:12:20.462Z,96.73
2018-02-02T02:13:20.447Z,97.02
2018-02-02T02:14:20.706Z,96.83
2018-02-02T02:15:20.680Z,97.11
2018-02-02T02:16:20.668Z,97.39
2018-02-02T02:17:20.406Z,97.3
2018-02-02T02:18:20.396Z,97.2
2018-02-02T02:19:20.651Z,96.83
2018-02-02T02:20:20.628Z,97.3
2018-02-02T02:21:20.657Z,97.3
2018-02-02T02:22:20.614Z,97.02
2018-02-02T02:23:20.342Z,97.2
2018-02-02T02:24:20.584Z,97.2
2018-02-02T02:25:20.576Z,97.39
2018-02-02T02:26:20.569Z,96.83
2018-02-02T02:27:20.308Z,97.2
2018-02-02T02:28:20.541Z,97.68
2018-02-02T02:29:20.537Z,97.49
2018-02-02T02:30:20.270Z,97.68
2018-02-02T02:31:20.276Z,98.53
2018-02-02T02:32:20.504Z,99.1
2018-02-02T02:33:20.238Z,98.53
2018-02-02T02:34:20.481Z,99.01
2018-02-02T02:35:20.710Z,99.29
2018-02-02T02:36:20.467Z,99.38
2018-02-02T02:37:20.452Z,99.29
2018-02-02T02:38:20.440Z,99.29
2018-02-02T02:39:20.451Z,99.19
2018-02-02T02:40:20.419Z,99.29
2018-02-02T02:41:20.428Z,99.01
2018-02-02T02:42:20.401Z,99.1
2018-02-02T02:43:20.393Z,99.66
2018-02-02T02:44:20.375Z,99.29
2018-02-02T02:45:20.365Z,99.99
2018-02-02T02:46:20.352Z,99.99
2018-02-02T02:47:20.351Z,99.99
2018-02-02T02:48:20.338Z,99.99
2018-02-02T02:49:20.324Z,99.99
2018-02-02T02:50:20.313Z,99.99
2018-02-02T02:51:20.308Z,99.99
2018-02-02T02:52:20.310Z,99.99
2018-02-02T02:53:20.298Z,99.95
2018-02-02T02:54:20.034Z,99.99
2018-02-02T02:55:20.271Z,99.99
2018-02-02T02:56:20.254Z,99.99
2018-02-02T02:57:20.259Z,99.99
2018-02-02T02:58:19.986Z,99.99
2018-02-02T02:59:20.239Z,99.99
2018-02-02T03:00:19.962Z,99.99
2018-02-02T03:01:20.197Z,99.48
2018-02-02T03:02:20.189Z,98.34
2018-02-02T03:03:20.178Z,98.44
2018-02-02T03:04:20.174Z,98.25
2018-02-02T03:05:20.173Z,98.91
2018-02-02T03:06:20.150Z,99.19
2018-02-02T03:07:20.142Z,99.57
2018-02-02T03:08:20.130Z,99.57
2018-02-02T03:09:20.117Z,99.1
2018-02-02T03:10:20.116Z,99.48
2018-02-02T03:11:20.095Z,99.85
2018-02-02T03:12:20.094Z,99.99
2018-02-02T03:13:20.075Z,99.99
2018-02-02T03:14:19.817Z,99.48
2018-02-02T03:15:19.814Z,99.66
2018-02-02T03:16:20.042Z,99.99
2018-02-02T03:17:20.037Z,98.91
2018-02-02T03:18:19.798Z,98.63
2018-02-02T03:19:19.763Z,97.96
2018-02-02T03:20:20.001Z,97.54
2018-02-02T03:21:19.993Z,97.39
2018-02-02T03:22:19.732Z,98.82
2018-02-02T03:23:19.986Z,97.68
2018-02-02T03:24:19.962Z,97.49
2018-02-02T03:25:19.959Z,97.96
2018-02-02T03:26:19.688Z,98.44
2018-02-02T03:27:19.935Z,99.01
2018-02-02T03:28:19.675Z,99.48
2018-02-02T03:29:19.927Z,99.57
2018-02-02T03:30:19.649Z,99.99
2018-02-02T03:31:19.637Z,99.99
2018-02-02T03:32:19.887Z,99.99
2018-02-02T03:33:19.869Z,99.99
2018-02-02T03:34:19.860Z,99.99
2018-02-02T03:35:19.848Z,99.76
2018-02-02T03:36:19.587Z,99.48
2018-02-02T03:37:19.575Z,99.57
2018-02-02T03:38:19.564Z,99.48
2018-02-02T03:39:19.815Z,99.99
2018-02-02T03:40:19.797Z,99.99
2018-02-02T03:41:19.791Z,99.99
2018-02-02T03:42:19.780Z,99.99
2018-02-02T03:43:19.770Z,99.99
2018-02-02T03:44:19.755Z,99.99
2018-02-02T03:45:19.492Z,99.99
2018-02-02T03:46:19.482Z,99.99
2018-02-02T03:47:19.721Z,99.99
2018-02-02T03:48:19.457Z,99.99
2018-02-02T03:49:19.699Z,99.99
2018-02-02T03:50:19.691Z,99.99
2018-02-02T03:51:19.690Z,99.99
2018-02-02T03:52:19.421Z,99.99
2018-02-02T03:53:19.662Z,99.99
2018-02-02T03:54:19.651Z,99.99
2018-02-02T03:55:19.635Z,99.99
2018-02-02T03:56:19.388Z,99.99
2018-02-02T03:57:19.616Z,99.99
2018-02-02T03:58:19.356Z,99.99
2018-02-02T03:59:19.597Z,99.99
2018-02-02T04:00:19.331Z,99.99
2018-02-02T04:01:19.337Z,99.99
2018-02-02T04:02:19.584Z,99.99
2018-02-02T04:03:19.553Z,99.99
2018-02-02T04:04:19.539Z,99.99
2018-02-02T04:05:19.534Z,99.99
2018-02-02T04:06:19.519Z,99.99
2018-02-02T04:07:19.518Z,99.99
2018-02-02T04:08:19.497Z,99.99
2018-02-02T04:09:19.492Z,99.99
2018-02-02T04:10:19.476Z,99.99
2018-02-02T04:11:19.466Z,99.99
2018-02-02T04:12:19.461Z,99.99
2018-02-02T04:13:19.205Z,99.99
2018-02-02T04:14:19.431Z,99.99
2018-02-02T04:15:19.170Z,99.99
2018-02-02T04:16:19.160Z,99.99
2018-02-02T04:17:19.146Z,99.99
2018-02-02T04:18:19.389Z,99.99
2018-02-02T04:19:19.386Z,99.99
2018-02-02T04:20:19.368Z,99.99
2018-02-02T04:21:19.105Z,99.99
2018-02-02T04:22:19.095Z,99.99
2018-02-02T04:23:19.345Z,99.99
2018-02-02T04:24:19.330Z,99.99
2018-02-02T04:25:19.318Z,99.99
2018-02-02T04:26:19.308Z,99.99
2018-02-02T04:27:19.292Z,99.99
2018-02-02T04:28:19.290Z,99.99
2018-02-02T04:29:19.274Z,99.99
2018-02-02T04:30:19.012Z,99.99
2018-02-02T04:31:18.996Z,99.99
2018-02-02T04:32:19.237Z,99.99
2018-02-02T04:33:19.238Z,99.99
2018-02-02T04:34:19.226Z,99.99
2018-02-02T04:35:18.968Z,99.99
2018-02-02T04:36:19.199Z,99.99
2018-02-02T04:37:19.234Z,99.99
2018-02-02T04:38:19.172Z,99.99
2018-02-02T04:39:19.160Z,99.99
2018-02-02T04:40:18.910Z,99.99
2018-02-02T04:41:19.145Z,99.99
2018-02-02T04:42:18.882Z,99.99
2018-02-02T04:43:19.118Z,99.99
2018-02-02T04:44:19.113Z,99.99
2018-02-02T04:45:18.846Z,99.99
2018-02-02T04:46:18.840Z,99.99
2018-02-02T04:47:19.073Z,99.99
2018-02-02T04:48:19.148Z,99.99
2018-02-02T04:49:18.801Z,99.99
2018-02-02T04:50:19.040Z,99.99
2018-02-02T04:51:19.029Z,99.99
2018-02-02T04:52:19.021Z,99.99
2018-02-02T04:53:19.019Z,99.99
2018-02-02T04:54:18.994Z,99.99
2018-02-02T04:55:18.987Z,99.99
2018-02-02T04:56:18.722Z,99.99
2018-02-02T04:57:18.964Z,99.99
2018-02-02T04:58:18.965Z,99.99
2018-02-02T04:59:18.938Z,99.99
2018-02-02T05:00:18.931Z,99.99
2018-02-02T05:01:18.669Z,99.99
2018-02-02T05:02:18.908Z,99.99
2018-02-02T05:03:18.909Z,99.99
2018-02-02T05:04:18.888Z,99.99
2018-02-02T05:05:18.878Z,99.99
2018-02-02T05:06:18.866Z,99.99
2018-02-02T05:07:18.607Z,99.99
2018-02-02T05:08:18.591Z,99.99
2018-02-02T05:09:18.831Z,99.99
2018-02-02T05:10:18.823Z,99.99
2018-02-02T05:11:18.815Z,99.99
2018-02-02T05:12:18.802Z,99.99
2018-02-02T05:13:18.788Z,99.99
2018-02-02T05:14:18.777Z,99.99
2018-02-02T05:15:18.786Z,99.99
2018-02-02T05:16:18.758Z,99.99
2018-02-02T05:17:18.536Z,99.99
2018-02-02T05:18:18.737Z,99.99
2018-02-02T05:19:18.734Z,99.99
2018-02-02T05:20:18.710Z,99.99
2018-02-02T05:21:18.714Z,99.99
2018-02-02T05:22:18.445Z,99.99
2018-02-02T05:23:18.686Z,99.99
2018-02-02T05:24:18.416Z,99.99
2018-02-02T05:25:18.866Z,99.99
2018-02-02T05:26:18.646Z,99.99
2018-02-02T05:27:18.645Z,99.99
2018-02-02T05:28:18.639Z,99.99
2018-02-02T05:29:18.614Z,99.99
2018-02-02T05:30:18.606Z,99.99
2018-02-02T05:31:18.339Z,99.99
2018-02-02T05:32:18.329Z,99.99
2018-02-02T05:33:18.578Z,99.99
2018-02-02T05:34:18.305Z,99.99
2018-02-02T05:35:19.115Z,99.99
2018-02-02T05:36:18.537Z,99.99
2018-02-02T05:37:18.524Z,99.99
2018-02-02T05:38:18.511Z,99.99
2018-02-02T05:39:18.506Z,99.99
2018-02-02T05:40:18.496Z,99.99
2018-02-02T05:41:18.483Z,99.99
2018-02-02T05:42:18.470Z,99.99
2018-02-02T05:43:18.216Z,99.99
2018-02-02T05:44:18.453Z,99.99
2018-02-02T05:45:18.448Z,99.99
2018-02-02T05:46:18.427Z,99.99
2018-02-02T05:47:18.410Z,99.99
2018-02-02T05:48:18.401Z,99.99
2018-02-02T05:49:18.397Z,99.99
2018-02-02T05:50:18.378Z,99.99
2018-02-02T05:51:18.369Z,99.99
2018-02-02T05:52:18.354Z,99.99
2018-02-02T05:53:18.342Z,99.99
2018-02-02T05:54:18.338Z,99.99
2018-02-02T05:55:18.340Z,99.99
2018-02-02T05:56:18.314Z,98.72
2018-02-02T05:57:18.299Z,98.25
2018-02-02T05:58:18.294Z,99.01
2018-02-02T05:59:18.050Z,99.85
2018-02-02T06:00:18.639Z,99.29
2018-02-02T06:01:18.255Z,99.48
2018-02-02T06:02:18.243Z,99.76
2018-02-02T06:03:18.233Z,99.76
2018-02-02T06:04:18.222Z,99.99
2018-02-02T06:05:18.052Z,99.66
2018-02-02T06:06:17.946Z,99.99
2018-02-02T06:07:18.184Z,99.99
2018-02-02T06:08:18.278Z,99.99
2018-02-02T06:09:18.166Z,99.99
2018-02-02T06:10:18.070Z,99.99
2018-02-02T06:11:18.140Z,99.01
2018-02-02T06:12:18.132Z,99.19
2018-02-02T06:13:18.124Z,99.57
2018-02-02T06:14:18.112Z,99.99
2018-02-02T06:23:20.596Z,98.91
2018-02-02T06:24:20.582Z,99.1
2018-02-02T06:25:20.668Z,99.01
2018-02-02T06:26:20.576Z,99.38
2018-02-02T06:27:20.552Z,99.95
2018-02-02T06:28:20.270Z,99.99
2018-02-02T06:29:20.258Z,99.71
2018-02-02T06:30:20.515Z,99.48
2018-02-02T06:31:20.494Z,98.86
2018-02-02T06:32:20.223Z,99.15
2018-02-02T06:33:20.203Z,99.24
2018-02-02T06:34:20.508Z,99.9
2018-02-02T06:35:20.438Z,99.62
2018-02-02T06:36:20.430Z,99.99
2018-02-02T06:37:20.424Z,99.99
2018-02-02T06:38:20.398Z,99.99
2018-02-02T06:39:20.141Z,99.71
2018-02-02T06:40:20.376Z,99.99
2018-02-02T06:41:20.117Z,99.01
2018-02-02T06:42:20.353Z,99.43
2018-02-02T06:43:20.089Z,99.9
2018-02-02T06:44:20.081Z,98.58
2018-02-02T06:45:20.314Z,98.39
2018-02-02T06:46:20.049Z,98.39
2018-02-02T06:47:20.289Z,98.96
2018-02-02T06:48:20.275Z,99.15
2018-02-02T06:49:20.262Z,98.96
2018-02-02T06:50:20.004Z,99.05
2018-02-02T06:51:20.265Z,99.05
2018-02-02T06:52:19.974Z,99.15
2018-02-02T06:53:19.970Z,98.96
2018-02-02T06:54:20.202Z,99.15
2018-02-02T06:55:20.194Z,99.43
2018-02-02T06:56:20.185Z,98.86
2018-02-02T06:57:20.169Z,99.15
2018-02-02T06:58:20.160Z,99.52
2018-02-02T06:59:20.148Z,99.71
2018-02-02T07:00:20.501Z,98.96
2018-02-02T07:01:19.873Z,97.96
2018-02-02T07:02:20.115Z,97.44
2018-02-02T07:03:19.853Z,98.39
2018-02-02T07:04:20.084Z,97.72
2018-02-02T07:05:19.823Z,97.34
2018-02-02T07:06:20.066Z,98.63
2018-02-02T07:07:20.061Z,99.01
2018-02-02T07:08:20.038Z,97.96
2018-02-02T07:09:20.029Z,97.58
2018-02-02T07:10:19.763Z,97.87
2018-02-02T07:11:20.006Z,97.49
2018-02-02T07:12:19.993Z,97.11
2018-02-02T07:13:19.730Z,97.96
2018-02-02T07:14:19.968Z,99.29
2018-02-02T07:15:19.957Z,98.15
2018-02-02T07:16:19.947Z,97.68
2018-02-02T07:17:19.938Z,97.49
2018-02-02T07:18:19.922Z,97.96
2018-02-02T07:19:19.911Z,96.26
2018-02-02T07:20:19.653Z,97.49
2018-02-02T07:21:19.639Z,96.64
2018-02-02T07:22:19.877Z,96.45
2018-02-02T07:23:19.625Z,97.77
2018-02-02T07:24:19.609Z,96.26
2018-02-02T07:25:19.853Z,95.88
2018-02-02T07:26:19.832Z,96.45
2018-02-02T07:27:19.825Z,95.69
2018-02-02T07:28:19.571Z,93.99
2018-02-02T07:29:19.810Z,93.7
2018-02-02T07:30:19.543Z,94.08
2018-02-02T07:31:19.777Z,93.61
2018-02-02T07:32:19.777Z,92.94
2018-02-02T07:33:19.520Z,92.29
2018-02-02T07:34:19.752Z,93.04
2018-02-02T07:35:19.738Z,94.18
2018-02-02T07:36:19.733Z,94.27
2018-02-02T07:37:19.468Z,94.65
2018-02-02T07:38:19.735Z,93.04
2018-02-02T07:39:19.695Z,94.08
2018-02-02T07:40:19.508Z,93.42
2018-02-02T07:41:19.693Z,93.42
2018-02-02T07:42:19.414Z,92.85
2018-02-02T07:43:19.406Z,93.37
2018-02-02T07:44:19.432Z,93.32
2018-02-02T07:45:20.015Z,93.32
2018-02-02T07:46:19.637Z,93.04
2018-02-02T07:47:19.618Z,93.04
2018-02-02T07:48:19.611Z,93.27
2018-02-02T07:49:19.590Z,92.99
2018-02-02T07:50:19.331Z,92.9
2018-02-02T07:51:19.321Z,92.57
2018-02-02T07:52:19.311Z,92.61
2018-02-02T07:53:19.554Z,93.37
2018-02-02T07:54:19.545Z,93.08
2018-02-02T07:55:19.533Z,91.67
2018-02-02T07:56:19.535Z,91.67
2018-02-02T07:57:19.514Z,92.05
2018-02-02T07:58:19.504Z,91.1
2018-02-02T07:59:19.496Z,91.86
2018-02-02T08:00:19.426Z,92.52
2018-02-02T08:01:19.222Z,92.52
2018-02-02T08:02:19.470Z,92.05
2018-02-02T08:03:19.455Z,91
2018-02-02T08:04:19.446Z,90.44
2018-02-02T08:05:19.444Z,89.87
2018-02-02T08:06:19.181Z,89.87
2018-02-02T08:07:19.416Z,89.77
2018-02-02T08:08:19.153Z,90.91
2018-02-02T08:09:19.148Z,91.1
2018-02-02T08:10:19.388Z,90.63
2018-02-02T08:11:19.384Z,90.63
2018-02-02T08:12:19.366Z,90.06
2018-02-02T08:13:19.387Z,89.77
2018-02-02T08:14:19.347Z,90.81
2018-02-02T08:15:19.362Z,90.81
2018-02-02T08:16:19.090Z,90.72
2018-02-02T08:17:19.072Z,89.58
2018-02-02T08:18:19.324Z,89.68
2018-02-02T08:19:19.051Z,89.77
2018-02-02T08:20:19.038Z,90.06
2018-02-02T08:21:19.282Z,89.96
2018-02-02T08:22:19.278Z,89.49
2018-02-02T08:23:19.270Z,89.3
2018-02-02T08:24:19.271Z,89.96
2018-02-02T08:25:19.000Z,90.15
2018-02-02T08:26:18.987Z,89.77
2018-02-02T08:27:19.224Z,90.01
2018-02-02T08:28:19.218Z,89.44
2018-02-02T08:29:18.953Z,89.72
2018-02-02T08:30:19.220Z,89.06
2018-02-02T08:31:19.196Z,88.96
2018-02-02T08:32:18.933Z,88.96
2018-02-02T08:33:19.176Z,89.06
2018-02-02T08:34:19.170Z,89.44
2018-02-02T08:35:19.161Z,88.59
2018-02-02T08:36:19.171Z,88.59
2018-02-02T08:37:18.886Z,88.4
2018-02-02T08:38:19.127Z,88.02
2018-02-02T08:39:19.115Z,87.83
2018-02-02T08:40:18.859Z,87.73
2018-02-02T08:41:19.108Z,88.3
2018-02-02T08:42:19.091Z,88.4
2018-02-02T08:43:18.839Z,88.21
2018-02-02T08:44:19.076Z,88.78
2018-02-02T08:45:18.820Z,89.34
2018-02-02T08:46:19.067Z,88.87
2018-02-02T08:47:18.798Z,88.21
2018-02-02T08:48:19.047Z,88.11
2018-02-02T08:49:18.788Z,87.73
2018-02-02T08:50:18.768Z,87.35
2018-02-02T08:51:19.011Z,86.69
2018-02-02T08:52:18.754Z,86.88
2018-02-02T08:53:18.742Z,85.74
2018-02-02T08:54:19.014Z,85.84
2018-02-02T08:55:18.985Z,85.69
2018-02-02T08:56:18.713Z,86.07
2018-02-02T08:57:18.711Z,86.16
2018-02-02T08:58:18.965Z,84.27
2018-02-02T08:59:18.689Z,83.61
2018-02-02T09:00:18.938Z,84.36
2018-02-02T09:01:18.676Z,84.08
2018-02-02T09:02:18.679Z,84.17
2018-02-02T09:03:18.909Z,82.75
2018-02-02T09:04:19.708Z,82.37
2018-02-02T09:05:18.892Z,83.98
2018-02-02T09:06:18.637Z,84.08
2018-02-02T09:07:18.625Z,83.74
2018-02-02T09:08:18.869Z,82.51
2018-02-02T09:09:18.920Z,81.75
2018-02-02T09:10:18.880Z,80.8
2018-02-02T09:11:18.592Z,80.9
2018-02-02T09:12:18.840Z,81.75
2018-02-02T09:13:18.829Z,82.32
2018-02-02T09:14:18.823Z,81.27
2018-02-02T09:15:18.861Z,80.8
2018-02-02T09:16:18.811Z,79.57
2018-02-02T09:17:18.817Z,79.38
2018-02-02T09:18:18.793Z,80.52
2018-02-02T09:19:18.539Z,80.8
2018-02-02T09:20:18.557Z,80.04
2018-02-02T09:21:18.772Z,80.9
2018-02-02T09:22:18.768Z,80.24
2018-02-02T09:23:18.537Z,79.47
2018-02-02T09:24:18.814Z,80.33
2018-02-02T09:25:18.491Z,80.99
2018-02-02T09:26:18.746Z,80.71
2018-02-02T09:27:18.728Z,80.24
2018-02-02T09:28:18.470Z,80.33
2018-02-02T09:29:18.717Z,81.56
2018-02-02T09:30:18.711Z,80.04
2018-02-02T09:31:18.456Z,80.33
2018-02-02T09:32:18.697Z,80.33
2018-02-02T09:33:18.693Z,80.33
2018-02-02T09:34:18.687Z,80.14
2018-02-02T09:35:18.421Z,79.38
2018-02-02T09:36:18.410Z,80.04
2018-02-02T09:37:18.665Z,80.71
2018-02-02T09:38:18.398Z,80.43
2018-02-02T09:39:18.648Z,79.57
2018-02-02T09:40:18.825Z,79.38
2018-02-02T09:41:18.626Z,80.24
2018-02-02T09:42:18.617Z,79.38
2018-02-02T09:43:18.363Z,79.38
2018-02-02T09:44:18.603Z,80.04
2018-02-02T09:45:18.498Z,79.38
2018-02-02T09:46:18.591Z,78.53
2018-02-02T09:47:18.583Z,79.1
2018-02-02T09:48:18.323Z,79.66
2018-02-02T09:49:18.572Z,79.57
2018-02-02T09:50:18.561Z,79.38
2018-02-02T09:51:18.552Z,79.76
2018-02-02T09:52:18.293Z,79
2018-02-02T09:53:18.341Z,79.19
2018-02-02T09:54:18.538Z,78.91
2018-02-02T09:55:18.534Z,78.34
2018-02-02T09:56:18.530Z,78.34
2018-02-02T09:57:18.257Z,78.43
2018-02-02T09:58:18.504Z,79.1
2018-02-02T09:59:18.240Z,79.1
2018-02-02T10:00:18.393Z,79.47
2018-02-02T10:01:18.485Z,79
2018-02-02T10:02:18.222Z,78.72
2018-02-02T10:03:18.469Z,78.24
2018-02-02T10:04:18.206Z,78.53
2018-02-02T10:05:18.534Z,78.28
2018-02-02T10:06:18.192Z,78.05
2018-02-02T10:07:18.442Z,78.15
2018-02-02T10:08:18.184Z,79
2018-02-02T10:09:18.183Z,78.24
2018-02-02T10:10:18.421Z,78.53
2018-02-02T10:11:18.407Z,78.43
2018-02-02T10:12:18.152Z,78.15
2018-02-02T10:13:18.143Z,78.53
2018-02-02T10:14:18.147Z,78.05
2018-02-02T10:15:18.569Z,78.91
2018-02-02T10:16:18.125Z,78.81
2018-02-02T10:17:18.127Z,79.38
2018-02-02T10:18:18.357Z,79.76
2018-02-02T10:19:18.359Z,78.91
2018-02-02T10:20:18.545Z,79.57
2018-02-02T10:21:18.348Z,78.72
2018-02-02T10:22:18.340Z,78.15
2018-02-02T10:23:18.335Z,78.05
2018-02-02T10:52:57.762Z,78.56
2018-02-02T10:53:57.752Z,78.56
2018-02-02T10:54:57.739Z,78.05
2018-02-02T10:55:57.731Z,77.67
2018-02-02T10:56:57.711Z,77.62
2018-02-02T10:57:57.442Z,77.39
2018-02-02T10:58:57.688Z,77.39
2018-02-02T10:59:57.685Z,77.29
2018-02-02T11:00:57.671Z,78.38
2018-02-02T11:01:57.671Z,79.14
2018-02-02T11:02:57.646Z,78.38
2018-02-02T11:03:57.384Z,77.52
2018-02-02T11:04:57.638Z,77.33
2018-02-02T11:05:57.642Z,76.1
2018-02-02T11:06:57.618Z,76.48
2018-02-02T11:07:57.611Z,77.43
2018-02-02T11:08:57.345Z,76.67
2018-02-02T11:09:57.594Z,76.48
2018-02-02T11:10:57.403Z,76.67
2018-02-02T11:11:57.577Z,76.39
2018-02-02T11:12:57.607Z,76.48
2018-02-02T11:13:57.609Z,76.29
2018-02-02T11:14:57.552Z,76.29
2018-02-02T11:15:57.582Z,75.81
2018-02-02T11:16:57.532Z,76.67
2018-02-02T11:17:57.531Z,76.2
2018-02-02T11:18:57.265Z,76.29
2018-02-02T11:19:57.258Z,77.05
2018-02-02T11:20:57.505Z,76.39
2018-02-02T11:21:57.498Z,75.34
2018-02-02T11:22:57.487Z,75.19
2018-02-02T11:23:57.246Z,75.34
2018-02-02T11:24:57.476Z,75.43
2018-02-02T11:25:57.467Z,75.81
2018-02-02T11:26:57.493Z,74.49
2018-02-02T11:27:57.456Z,75.24
2018-02-02T11:28:57.489Z,76.39
2018-02-02T11:29:57.188Z,75.62
2018-02-02T11:30:57.435Z,75.15
2018-02-02T11:31:57.182Z,75.15
2018-02-02T11:32:57.423Z,74.87
2018-02-02T11:33:57.165Z,75.24
2018-02-02T11:34:57.406Z,75.81
2018-02-02T11:35:57.399Z,75.24
2018-02-02T11:36:57.145Z,75.43
2018-02-02T11:37:57.387Z,75.62
2018-02-02T11:38:57.420Z,75.91
2018-02-02T11:39:57.120Z,75.05
2018-02-02T11:40:57.113Z,75.91
2018-02-02T11:41:57.421Z,76.76
2018-02-02T11:42:57.106Z,76.29
2018-02-02T11:43:57.354Z,75.62
2018-02-02T11:44:57.343Z,76.2
2018-02-02T11:45:57.331Z,76.57
2018-02-02T11:46:57.090Z,76.29
2018-02-02T11:47:57.320Z,76.2
2018-02-02T11:48:57.059Z,76.39
2018-02-02T11:49:57.304Z,76.67
2018-02-02T11:50:57.293Z,76.57
2018-02-02T11:51:57.293Z,75.34
2018-02-02T11:52:57.291Z,75.62
2018-02-02T11:53:57.278Z,75.81
2018-02-02T11:54:57.024Z,76.57
2018-02-02T11:55:57.018Z,76.57
2018-02-02T11:56:57.256Z,75.81
2018-02-02T11:57:57.247Z,75.91
2018-02-02T11:58:56.991Z,74.96
2018-02-02T11:59:57.263Z,75.43
2018-02-02T12:00:56.976Z,74.9
2018-02-02T12:01:57.223Z,74.81
2018-02-02T12:02:56.973Z,74.81
2018-02-02T12:03:57.208Z,74.81
2018-02-02T12:04:57.203Z,74.71
2018-02-02T12:05:56.943Z,74.49
2018-02-02T12:06:57.192Z,74.71
2018-02-02T12:07:57.448Z,74.62
2018-02-02T12:08:57.174Z,75.67
2018-02-02T12:09:56.917Z,76.52
2018-02-02T12:10:57.164Z,75.76
2018-02-02T12:11:57.212Z,74.71
2018-02-02T12:12:57.150Z,73.19
2018-02-02T12:13:57.144Z,72.72
2018-02-02T12:14:56.889Z,73.19
2018-02-02T12:15:57.133Z,73.67
2018-02-02T12:16:56.877Z,74.15
2018-02-02T12:17:56.867Z,74.62
2018-02-02T12:18:57.113Z,74.62
2018-02-02T12:19:57.118Z,74.81
2018-02-02T12:20:57.099Z,74.15
2018-02-02T12:21:57.114Z,73.57
2018-02-02T12:22:57.112Z,73.76
2018-02-02T12:23:56.830Z,74.15
2018-02-02T12:24:57.073Z,73.29
2018-02-02T12:25:57.073Z,73.29
2018-02-02T12:26:57.065Z,72.63
2018-02-02T12:27:57.066Z,72.81
2018-02-02T12:28:57.054Z,73.96
2018-02-02T12:29:56.791Z,74.62
2018-02-02T12:30:56.786Z,74.71
2018-02-02T12:31:56.786Z,73.86
2018-02-02T12:32:57.039Z,74.24
2018-02-02T12:33:57.021Z,74.33
2018-02-02T12:34:57.019Z,73.96
2018-02-02T12:35:57.006Z,74.71
2018-02-02T12:36:57.001Z,74.9
2018-02-02T12:37:56.999Z,74.62
2018-02-02T12:38:56.989Z,74.43
2018-02-02T12:39:56.990Z,74.05
2018-02-02T12:40:56.977Z,74.15
2018-02-02T12:41:56.965Z,74.81
2018-02-02T12:42:56.716Z,75.28
2018-02-02T12:43:56.955Z,74.81
2018-02-02T12:44:56.700Z,74.71
2018-02-02T12:45:56.947Z,74.62
2018-02-02T12:46:56.717Z,74.81
2018-02-02T12:47:56.934Z,75
2018-02-02T12:48:56.932Z,75.19
2018-02-02T12:49:56.678Z,75.38
2018-02-02T12:50:56.916Z,75.57
2018-02-02T12:51:56.663Z,74.71
2018-02-02T12:52:56.901Z,75.38
2018-02-02T12:53:56.640Z,74.15
2018-02-02T12:54:56.890Z,74.33
2018-02-02T12:55:56.888Z,73.96
2018-02-02T12:56:56.872Z,74.71
2018-02-02T12:57:56.875Z,74.62
2018-02-02T12:58:56.869Z,75.19
2018-02-02T12:59:56.902Z,74.9
2018-02-02T13:00:56.613Z,74.15
2018-02-02T13:01:56.641Z,74.05
2018-02-02T13:02:56.837Z,73.96
2018-02-02T13:03:56.824Z,74.62
2018-02-02T13:04:56.818Z,74.71
2018-02-02T13:05:56.824Z,75.19
2018-02-02T13:06:56.821Z,75
2018-02-02T13:07:56.909Z,73.96
2018-02-02T13:08:56.585Z,73.96
2018-02-02T13:09:56.808Z,73.67
2018-02-02T13:10:56.802Z,73.9
2018-02-02T13:11:56.801Z,73.52
2018-02-02T13:12:56.537Z,73.71
2018-02-02T13:13:56.525Z,72.95
2018-02-02T13:14:56.765Z,72.66
2018-02-02T13:15:56.511Z,72.28
2018-02-02T13:16:56.770Z,72.85
2018-02-02T13:17:56.498Z,73.23
2018-02-02T13:18:56.750Z,73.52
2018-02-02T13:19:56.749Z,71.71
2018-02-02T13:20:56.480Z,70.86
2018-02-02T13:21:56.722Z,71.33
2018-02-02T13:22:56.736Z,70.76
2018-02-02T13:23:56.720Z,70.86
2018-02-02T13:24:56.716Z,70.76
2018-02-02T13:25:56.464Z,71.33
2018-02-02T13:26:56.714Z,71.71
2018-02-02T13:27:56.713Z,70.76
2018-02-02T13:28:56.434Z,70.76
2018-02-02T13:29:56.439Z,72.75
2018-02-02T13:30:56.442Z,73.57